createdAt,value
2022-11-24T00:01:54.812Z,98339.88
2022-11-24T00:04:21.638Z,98342.56
2022-11-24T00:06:49.781Z,98351.69
2022-11-24T00:09:16.781Z,98357.34
2022-11-24T00:11:43.572Z,98353.56
2022-11-24T00:14:11.232Z,98354.63
2022-11-24T00:16:38.622Z,98350.06
2022-11-24T00:19:09.054Z,98357.34
2022-11-24T00:21:37.149Z,98362.94
2022-11-24T00:24:06.254Z,98353.22
2022-11-24T00:26:35.000Z,98361.28
2022-11-24T00:29:05.653Z,98365.03
2022-11-24T00:31:35.202Z,98372.88
2022-11-24T00:34:05.152Z,98369.38
2022-11-24T00:36:34.483Z,98371.22
2022-11-24T00:39:03.165Z,98372.88
2022-11-24T00:41:32.104Z,98368.78
2022-11-24T00:43:59.148Z,98370.41
2022-11-24T00:46:26.853Z,98366.91
2022-11-24T00:48:54.231Z,98355.31
2022-11-24T00:51:22.597Z,98358.00
2022-11-24T00:53:49.577Z,98364.47
2022-11-24T00:56:16.486Z,98363.41
2022-11-24T00:58:44.750Z,98364.47
2022-11-24T01:01:13.077Z,98365.50
2022-11-24T01:03:40.685Z,98361.19
2022-11-24T01:06:09.726Z,98355.22
2022-11-24T01:08:37.604Z,98357.91
2022-11-24T01:11:12.644Z,98356.63
2022-11-24T01:13:39.637Z,98367.38
2022-11-24T01:16:14.616Z,98374.63
2022-11-24T01:18:41.552Z,98367.63
2022-11-24T01:21:10.284Z,98380.25
2022-11-24T01:23:37.361Z,98388.09
2022-11-24T01:26:05.762Z,98388.31
2022-11-24T01:28:32.718Z,98384.84
2022-11-24T01:30:59.945Z,98392.91
2022-11-24T01:33:28.561Z,98395.59
2022-11-24T01:35:56.722Z,98390.44
2022-11-24T01:38:23.820Z,98403.09
2022-11-24T01:40:50.776Z,98412.78
2022-11-24T01:43:19.801Z,98404.97
2022-11-24T01:45:47.496Z,98399.31
2022-11-24T01:48:24.487Z,98395.00
2022-11-24T01:51:04.621Z,98395.25
2022-11-24T01:53:31.521Z,98403.09
2022-11-24T01:55:59.145Z,98406.84
2022-11-24T01:58:29.899Z,98398.16
2022-11-24T02:00:56.831Z,98413.28
2022-11-24T02:03:28.597Z,98414.09
2022-11-24T02:06:01.055Z,98413.28
2022-11-24T02:08:33.735Z,98418.66
2022-11-24T02:11:02.390Z,98421.34
2022-11-24T02:13:29.977Z,98423.22
2022-11-24T02:15:56.841Z,98429.44
2022-11-24T02:18:23.667Z,98427.78
2022-11-24T02:20:50.695Z,98424.03
2022-11-24T02:23:24.823Z,98418.66
2022-11-24T02:26:02.212Z,98418.06
2022-11-24T02:28:31.415Z,98423.44
2022-11-24T02:31:01.003Z,98412.69
2022-11-24T02:33:28.069Z,98413.75
2022-11-24T02:35:55.034Z,98407.53
2022-11-24T02:38:30.308Z,98408.38
2022-11-24T02:40:59.939Z,98411.06
2022-11-24T02:43:32.340Z,98410.22
2022-11-24T02:45:59.400Z,98422.88
2022-11-24T02:48:26.227Z,98419.13
2022-11-24T02:50:53.049Z,98424.75
2022-11-24T02:53:19.849Z,98415.84
2022-11-24T02:55:46.706Z,98414.00
2022-11-24T02:58:14.919Z,98405.69
2022-11-24T03:00:43.096Z,98395.97
2022-11-24T03:03:09.919Z,98399.69
2022-11-24T03:05:36.852Z,98404.06
2022-11-24T03:08:03.882Z,98409.66
2022-11-24T03:10:30.722Z,98405.69
2022-11-24T03:12:57.820Z,98405.91
2022-11-24T03:15:24.811Z,98405.09
2022-11-24T03:17:54.777Z,98403.47
2022-11-24T03:20:21.615Z,98405.09
2022-11-24T03:22:48.398Z,98406.97
2022-11-24T03:25:15.340Z,98415.84
2022-11-24T03:27:42.145Z,98414.22
2022-11-24T03:30:10.217Z,98415.84
2022-11-24T03:32:36.985Z,98412.34
2022-11-24T03:35:06.120Z,98415.84
2022-11-24T03:37:32.990Z,98424.19
2022-11-24T03:39:59.766Z,98421.22
2022-11-24T03:42:26.583Z,98427.69
2022-11-24T03:44:53.377Z,98426.28
2022-11-24T03:47:20.162Z,98425.44
2022-11-24T03:49:47.474Z,98421.72
2022-11-24T03:52:15.620Z,98424.41
2022-11-24T03:54:42.629Z,98427.13
2022-11-24T03:57:09.492Z,98435.19
2022-11-24T03:59:36.294Z,98428.97
2022-11-24T04:02:03.098Z,98436.22
2022-11-24T04:04:29.946Z,98436.22
2022-11-24T04:06:56.875Z,98436.22
2022-11-24T04:09:25.101Z,98441.59
2022-11-24T04:12:10.341Z,98438.91
2022-11-24T04:14:37.603Z,98423.81
2022-11-24T04:17:04.851Z,98431.34
2022-11-24T04:19:31.670Z,98436.72
2022-11-24T04:21:58.448Z,98430.28
2022-11-24T04:24:26.589Z,98428.66
2022-11-24T04:26:53.488Z,98424.88
2022-11-24T04:29:20.283Z,98417.88
2022-11-24T04:31:47.220Z,98423.03
2022-11-24T04:34:14.079Z,98442.09
2022-11-24T04:36:41.086Z,98436.72
2022-11-24T04:39:23.680Z,98449.09
2022-11-24T04:41:54.387Z,98445.59
2022-11-24T04:44:21.205Z,98458.25
2022-11-24T04:46:48.301Z,98457.19
2022-11-24T04:49:15.226Z,98460.94
2022-11-24T04:51:42.446Z,98457.19
2022-11-24T04:54:11.616Z,98467.09
2022-11-24T04:56:38.704Z,98470.63
2022-11-24T04:59:08.643Z,98459.63
2022-11-24T05:01:35.928Z,98462.88
2022-11-24T05:04:02.957Z,98476.34
2022-11-24T05:06:29.978Z,98478.56
2022-11-24T05:08:56.767Z,98482.88
2022-11-24T05:11:23.555Z,98479.16
2022-11-24T05:13:50.358Z,98479.16
2022-11-24T05:16:18.544Z,98492.63
2022-11-24T05:18:46.030Z,98496.94
2022-11-24T05:21:12.898Z,98520.94
2022-11-24T05:23:39.684Z,98529.81
2022-11-24T05:26:06.638Z,98537.88
2022-11-24T05:28:33.800Z,98528.78
2022-11-24T05:31:00.835Z,98530.41
2022-11-24T05:33:30.110Z,98519.41
2022-11-24T05:36:01.285Z,98494.34
2022-11-24T05:38:29.600Z,98533.44
2022-11-24T05:41:00.684Z,98543.13
2022-11-24T05:43:27.840Z,98528.66
2022-11-24T05:45:54.623Z,98530.63
2022-11-24T05:48:21.468Z,98521.25
2022-11-24T05:50:54.915Z,98515.19
2022-11-24T05:53:21.719Z,98528.97
2022-11-24T05:55:48.473Z,98532.81
2022-11-24T05:58:15.401Z,98533.44
2022-11-24T06:00:42.208Z,98539.97
2022-11-24T06:03:10.661Z,98535.97
2022-11-24T06:05:37.556Z,98539.59
2022-11-24T06:08:05.787Z,98545.09
2022-11-24T06:10:32.639Z,98550.56
2022-11-24T06:12:59.426Z,98541.78
2022-11-24T06:15:26.229Z,98542.69
2022-11-24T06:17:54.665Z,98551.09
2022-11-24T06:20:21.946Z,98548.50
2022-11-24T06:22:48.699Z,98559.03
2022-11-24T06:25:17.464Z,98550.50
2022-11-24T06:27:44.956Z,98560.78
2022-11-24T06:30:13.257Z,98547.31
2022-11-24T06:32:49.151Z,98551.22
2022-11-24T06:35:16.641Z,98554.47
2022-11-24T06:37:43.473Z,98556.13
2022-11-24T06:40:10.838Z,98555.84
2022-11-24T06:42:38.994Z,98567.47
2022-11-24T06:45:09.271Z,98568.53
2022-11-24T06:47:36.504Z,98573.69
2022-11-24T06:50:03.493Z,98582.56
2022-11-24T06:52:30.390Z,98582.56
2022-11-24T06:54:57.308Z,98594.19
2022-11-24T06:57:24.146Z,98598.19
2022-11-24T06:59:52.323Z,98594.88
2022-11-24T07:02:19.131Z,98597.56
2022-11-24T07:04:45.883Z,98594.09
2022-11-24T07:07:12.747Z,98602.41
2022-11-24T07:09:39.617Z,98608.84
2022-11-24T07:12:07.078Z,98602.59
2022-11-24T07:14:34.083Z,98608.22
2022-11-24T07:17:02.719Z,98607.06
2022-11-24T07:19:29.543Z,98599.22
2022-11-24T07:21:56.401Z,98602.16
2022-11-24T07:24:23.183Z,98617.75
2022-11-24T07:26:50.295Z,98612.59
2022-11-24T07:29:17.095Z,98620.09
2022-11-24T07:31:45.664Z,98619.06
2022-11-24T07:34:14.888Z,98631.47
2022-11-24T07:36:41.901Z,98629.00
2022-11-24T07:39:08.687Z,98638.16
2022-11-24T07:41:35.487Z,98639.78
2022-11-24T07:44:02.334Z,98636.53
2022-11-24T07:46:29.148Z,98642.94
2022-11-24T07:48:56.051Z,98639.44
2022-11-24T07:51:24.256Z,98650.47
2022-11-24T07:53:51.186Z,98651.75
2022-11-24T07:56:18.028Z,98659.84
2022-11-24T07:58:49.689Z,98661.13
2022-11-24T08:01:19.658Z,98668.16
2022-11-24T08:03:46.681Z,98656.22
2022-11-24T08:06:36.238Z,98660.53
2022-11-24T08:09:02.493Z,98662.66
2022-11-24T08:11:31.458Z,98671.19
2022-11-24T08:13:58.563Z,98680.34
2022-11-24T08:16:25.521Z,98683.03
2022-11-24T08:18:54.205Z,98689.47
2022-11-24T08:21:23.212Z,98687.03
2022-11-24T08:23:54.666Z,98701.53
2022-11-24T08:26:24.787Z,98706.09
2022-11-24T08:28:54.715Z,98709.03
2022-11-24T08:31:21.901Z,98713.81
2022-11-24T08:33:48.859Z,98715.72
2022-11-24T08:36:18.235Z,98704.09
2022-11-24T08:38:45.901Z,98707.88
2022-11-24T08:41:15.439Z,98708.94
2022-11-24T08:43:43.788Z,98709.16
2022-11-24T08:46:12.576Z,98708.56
2022-11-24T08:48:39.647Z,98710.44
2022-11-24T08:51:08.810Z,98712.31
2022-11-24T08:53:35.602Z,98708.78
2022-11-24T08:56:03.428Z,98713.38
2022-11-24T08:58:30.581Z,98718.75
2022-11-24T09:01:06.226Z,98728.69
2022-11-24T09:03:34.454Z,98726.22
2022-11-24T09:06:01.378Z,98727.06
2022-11-24T09:08:29.867Z,98739.91
2022-11-24T09:10:59.598Z,98746.13
2022-11-24T09:13:26.347Z,98753.38
2022-11-24T09:15:53.098Z,98754.69
2022-11-24T09:18:22.750Z,98751.97
2022-11-24T09:20:51.082Z,98762.75
2022-11-24T09:23:17.956Z,98771.88
2022-11-24T09:25:44.742Z,98765.66
2022-11-24T09:28:11.587Z,98771.28
2022-11-24T09:30:38.432Z,98774.81
2022-11-24T09:33:05.499Z,98778.34
2022-11-24T09:35:37.246Z,98784.53
2022-11-24T09:38:04.042Z,98782.88
2022-11-24T09:40:30.847Z,98795.50
2022-11-24T09:43:01.773Z,98793.09
2022-11-24T09:46:04.493Z,98794.94
2022-11-24T09:48:34.285Z,98796.00
2022-11-24T09:51:04.363Z,98797.03
2022-11-24T09:53:38.018Z,98799.72
2022-11-24T09:56:16.512Z,98810.50
2022-11-24T09:58:48.391Z,98798.91
2022-11-24T10:01:17.942Z,98815.06
2022-11-24T10:03:48.085Z,98818.00
2022-11-24T10:06:25.561Z,98816.94
2022-11-24T10:09:30.842Z,98823.38
2022-11-24T10:12:12.157Z,98828.16
2022-11-24T10:15:00.812Z,98837.06
2022-11-24T10:17:49.653Z,98835.66
2022-11-24T10:20:27.988Z,98843.72
2022-11-24T10:23:14.436Z,98836.72
2022-11-24T10:25:49.506Z,98834.81
2022-11-24T10:28:16.833Z,98844.56
2022-11-24T10:30:44.354Z,98831.09
2022-11-24T10:33:17.361Z,98831.09
2022-11-24T10:35:48.239Z,98834.81
2022-11-24T10:38:31.764Z,98840.81
2022-11-24T10:41:03.269Z,98838.34
2022-11-24T10:43:30.232Z,98849.13
2022-11-24T10:46:05.057Z,98845.81
2022-11-24T10:48:40.881Z,98845.81
2022-11-24T10:51:44.394Z,98843.13
2022-11-24T10:54:17.935Z,98838.75
2022-11-24T10:56:46.748Z,98844.16
2022-11-24T10:59:36.210Z,98844.16
2022-11-24T11:02:24.836Z,98843.56
2022-11-24T11:04:51.648Z,98837.97
2022-11-24T11:07:20.539Z,98835.28
2022-11-24T11:09:49.571Z,98828.44
2022-11-24T11:15:29.837Z,98840.88
2022-11-24T11:17:58.804Z,98841.91
2022-11-24T11:20:29.442Z,98855.38
2022-11-24T11:22:57.769Z,98851.66
2022-11-24T11:25:30.960Z,98852.44
2022-11-24T11:28:19.700Z,98850.81
2022-11-24T11:31:18.022Z,98840.88
2022-11-24T11:34:04.656Z,98851.88
2022-11-24T11:36:34.393Z,98863.44
2022-11-24T11:39:03.699Z,98860.75
2022-11-24T11:41:34.906Z,98862.03
2022-11-24T11:44:19.457Z,98861.59
2022-11-24T11:46:47.372Z,98866.13
2022-11-24T11:49:14.448Z,98865.34
2022-11-24T11:51:56.332Z,98872.81
2022-11-24T11:54:35.268Z,98866.38
2022-11-24T11:57:10.416Z,98870.72
2022-11-24T11:59:53.317Z,98866.75
2022-11-24T12:02:59.515Z,98855.38
2022-11-24T12:05:34.834Z,98856.44
2022-11-24T12:08:20.950Z,98864.28
2022-11-24T12:10:54.326Z,98870.72
2022-11-24T12:13:42.311Z,98861.00
2022-11-24T12:16:19.656Z,98865.78
2022-11-24T12:18:58.262Z,98867.19
2022-11-24T12:21:34.142Z,98864.50
2022-11-24T12:24:09.543Z,98853.97
2022-11-24T12:26:44.124Z,98856.66
2022-11-24T12:29:34.507Z,98855.00
2022-11-24T12:32:10.346Z,98855.84
2022-11-24T12:34:49.051Z,98853.97
2022-11-24T12:37:29.865Z,98855.00
2022-11-24T12:40:04.469Z,98846.72
2022-11-24T12:42:43.746Z,98844.25
2022-11-24T12:45:18.623Z,98845.09
2022-11-24T12:48:10.099Z,98839.69
2022-11-24T12:50:38.806Z,98832.66
2022-11-24T12:53:13.589Z,98833.47
2022-11-24T12:55:41.929Z,98838.03
2022-11-24T12:58:16.735Z,98823.78
2022-11-24T13:00:55.564Z,98830.78
2022-11-24T13:03:32.321Z,98826.47
2022-11-24T13:06:03.000Z,98820.25
2022-11-24T13:08:31.143Z,98821.88
2022-11-24T13:11:26.805Z,98816.50
2022-11-24T13:13:58.732Z,98813.81
2022-11-24T13:16:36.862Z,98808.44
2022-11-24T13:19:13.854Z,98808.69
2022-11-24T13:21:52.830Z,98818.38
2022-11-24T13:24:25.888Z,98814.06
2022-11-24T13:26:54.707Z,98815.09
2022-11-24T13:29:33.548Z,98810.53
2022-11-24T13:32:51.978Z,98821.09
2022-11-24T13:35:20.227Z,98817.78
2022-11-24T13:37:51.532Z,98810.75
2022-11-24T13:40:45.819Z,98818.63
2022-11-24T13:43:24.492Z,98811.00
2022-11-24T13:45:54.385Z,98808.31
2022-11-24T13:49:04.259Z,98804.56
2022-11-24T13:51:32.465Z,98793.78
2022-11-24T13:54:00.935Z,98785.72
2022-11-24T13:56:30.563Z,98782.22
2022-11-24T13:58:59.964Z,98785.72
2022-11-24T14:01:31.376Z,98778.47
2022-11-24T14:07:07.864Z,98774.38
2022-11-24T14:09:40.765Z,98775.19
2022-11-24T14:12:14.604Z,98765.25
2022-11-24T14:14:41.997Z,98767.94
2022-11-24T14:17:16.751Z,98768.75
2022-11-24T14:19:45.424Z,98762.31
2022-11-24T14:22:19.628Z,98763.38
2022-11-24T14:24:52.189Z,98758.78
2022-11-24T14:27:24.663Z,98757.78
2022-11-24T14:29:54.431Z,98764.78
2022-11-24T14:32:21.976Z,98766.66
2022-11-24T14:34:48.887Z,98756.72
2022-11-24T14:37:17.046Z,98764.56
2022-11-24T14:39:43.855Z,98758.34
2022-11-24T14:42:18.647Z,98751.09
2022-11-24T14:44:49.450Z,98749.47
2022-11-24T14:47:27.139Z,98756.72
2022-11-24T14:50:08.307Z,98755.66
2022-11-24T14:52:42.112Z,98745.13
2022-11-24T14:55:24.655Z,98746.78
2022-11-24T14:57:51.858Z,98747.56
2022-11-24T15:00:25.108Z,98744.88
2022-11-24T15:02:54.039Z,98752.16
2022-11-24T15:05:22.882Z,98752.97
2022-11-24T15:08:00.215Z,98754.03
2022-11-24T15:10:33.920Z,98748.63
2022-11-24T15:13:05.211Z,98741.63
2022-11-24T15:15:35.376Z,98745.13
2022-11-24T15:18:03.965Z,98756.72
2022-11-24T15:20:35.313Z,98757.78
2022-11-24T15:23:30.948Z,98771.22
2022-11-24T15:26:18.726Z,98771.44
2022-11-24T15:28:47.280Z,98771.44
2022-11-24T15:31:14.784Z,98774.94
2022-11-24T15:33:42.337Z,98773.09
2022-11-24T15:36:09.277Z,98775.56
2022-11-24T15:38:36.107Z,98774.72
2022-11-24T15:41:18.107Z,98789.59
2022-11-24T15:43:44.906Z,98790.63
2022-11-24T15:46:13.464Z,98794.63
2022-11-24T15:48:40.319Z,98791.69
2022-11-24T15:51:11.608Z,98793.78
2022-11-24T15:53:39.576Z,98804.31
2022-11-24T15:56:11.069Z,98802.91
2022-11-24T15:58:37.898Z,98802.91
2022-11-24T16:01:04.722Z,98805.38
2022-11-24T16:03:49.082Z,98806.44
2022-11-24T16:06:24.148Z,98808.31
2022-11-24T16:08:52.079Z,98802.91
2022-11-24T16:11:18.984Z,98802.91
2022-11-24T16:13:51.919Z,98807.25
2022-11-24T16:16:20.080Z,98803.75
2022-11-24T16:18:48.299Z,98804.56
2022-11-24T16:21:15.202Z,98799.16
2022-11-24T16:23:42.074Z,98797.53
2022-11-24T16:26:10.231Z,98809.94
2022-11-24T16:28:37.059Z,98807.25
2022-11-24T16:31:04.092Z,98816.97
2022-11-24T16:33:31.358Z,98816.97
2022-11-24T16:35:59.489Z,98812.41
2022-11-24T16:38:26.245Z,98816.97
2022-11-24T16:40:53.778Z,98828.31
2022-11-24T16:43:20.817Z,98826.00
2022-11-24T16:46:00.019Z,98826.59
2022-11-24T16:48:26.841Z,98825.13
2022-11-24T16:50:53.930Z,98822.53
2022-11-24T16:53:22.113Z,98805.94
2022-11-24T16:55:57.141Z,98813.34
2022-11-24T16:58:23.934Z,98806.44
2022-11-24T17:00:50.758Z,98807.63
2022-11-24T17:03:17.598Z,98798.38
2022-11-24T17:05:44.491Z,98799.53
2022-11-24T17:08:11.262Z,98788.09
2022-11-24T17:10:39.393Z,98778.81
2022-11-24T17:13:06.163Z,98777.31
2022-11-24T17:15:36.616Z,98769.56
2022-11-24T17:18:23.931Z,98769.94
2022-11-24T17:20:52.720Z,98768.97
2022-11-24T17:23:19.717Z,98772.28
2022-11-24T17:25:48.785Z,98782.13
2022-11-24T17:28:15.690Z,98771.94
2022-11-24T17:30:42.650Z,98777.69
2022-11-24T17:33:09.565Z,98772.88
2022-11-24T17:35:37.219Z,98772.88
2022-11-24T17:38:04.535Z,98768.06
2022-11-24T17:40:31.352Z,98772.41
2022-11-24T17:43:00.266Z,98774.06
2022-11-24T17:45:28.184Z,98768.66
2022-11-24T17:47:55.148Z,98762.22
2022-11-24T17:50:25.684Z,98764.44
2022-11-24T17:52:53.148Z,98759.84
2022-11-24T17:55:20.050Z,98758.44
2022-11-24T17:57:46.926Z,98759.28
2022-11-24T18:00:16.308Z,98759.06
2022-11-24T18:02:43.161Z,98756.09
2022-11-24T18:05:09.981Z,98759.63
2022-11-24T18:07:37.071Z,98756.91
2022-11-24T18:10:04.642Z,98756.91
2022-11-24T18:12:32.886Z,98763.94
2022-11-24T18:14:59.886Z,98768.53
2022-11-24T18:17:29.057Z,98771.47
2022-11-24T18:19:55.998Z,98767.69
2022-11-24T18:22:42.843Z,98763.94
2022-11-24T18:25:09.922Z,98769.34
2022-11-24T18:27:36.710Z,98769.34
2022-11-24T18:30:04.019Z,98773.09
2022-11-24T18:32:32.157Z,98775.56
2022-11-24T18:34:59.151Z,98768.53
2022-11-24T18:37:25.942Z,98772.03
2022-11-24T18:39:52.901Z,98770.16
2022-11-24T18:42:20.913Z,98770.72
2022-11-24T18:44:51.121Z,98775.56
2022-11-24T18:47:20.728Z,98773.44
2022-11-24T18:49:48.895Z,98773.69
2022-11-24T18:52:15.715Z,98773.44
2022-11-24T18:54:42.522Z,98771.56
2022-11-24T18:57:09.285Z,98773.19
2022-11-24T18:59:36.806Z,98772.16
2022-11-24T19:02:03.626Z,98772.97
2022-11-24T19:04:30.444Z,98767.56
2022-11-24T19:06:58.555Z,98768.41
2022-11-24T19:09:25.630Z,98763.00
2022-11-24T19:11:52.392Z,98766.78
2022-11-24T19:14:19.318Z,98762.78
2022-11-24T19:16:48.058Z,98770.03
2022-11-24T19:19:16.442Z,98765.72
2022-11-24T19:21:43.279Z,98768.16
2022-11-24T19:24:13.179Z,98768.41
2022-11-24T19:26:40.473Z,98763.00
2022-11-24T19:29:08.141Z,98767.34
2022-11-24T19:31:35.747Z,98766.28
2022-11-24T19:34:03.369Z,98760.88
2022-11-24T19:36:30.624Z,98762.78
2022-11-24T19:38:58.990Z,98766.28
2022-11-24T19:41:29.783Z,98765.47
2022-11-24T19:43:57.939Z,98768.41
2022-11-24T19:46:27.241Z,98765.47
2022-11-24T19:48:56.877Z,98774.34
2022-11-24T19:51:25.722Z,98771.66
2022-11-24T19:53:53.107Z,98761.72
2022-11-24T19:56:22.205Z,98768.75
2022-11-24T19:58:51.733Z,98765.81
2022-11-24T20:01:20.270Z,98762.03
2022-11-24T20:03:53.245Z,98758.78
2022-11-24T20:06:20.014Z,98757.72
2022-11-24T20:08:47.949Z,98756.66
2022-11-24T20:11:16.511Z,98761.25
2022-11-24T20:13:45.204Z,98763.13
2022-11-24T20:16:15.383Z,98756.09
2022-11-24T20:18:43.997Z,98753.41
2022-11-24T20:21:12.878Z,98762.53
2022-11-24T20:23:40.821Z,98759.59
2022-11-24T20:26:10.077Z,98756.41
2022-11-24T20:28:37.119Z,98755.63
2022-11-24T20:31:04.683Z,98753.72
2022-11-24T20:33:33.875Z,98757.47
2022-11-24T20:36:05.484Z,98754.78
2022-11-24T20:38:34.360Z,98748.56
2022-11-24T20:41:07.520Z,98755.03
2022-11-24T20:43:37.031Z,98756.88
2022-11-24T20:46:04.526Z,98750.09
2022-11-24T20:48:33.313Z,98752.22
2022-11-24T20:51:03.993Z,98752.22
2022-11-24T20:53:30.800Z,98757.63
2022-11-24T20:56:05.627Z,98753.28
2022-11-24T20:58:34.424Z,98750.00
2022-11-24T21:01:04.425Z,98748.00
2022-11-24T21:03:32.687Z,98750.69
2022-11-24T21:05:59.523Z,98752.00
2022-11-24T21:08:26.591Z,98744.97
2022-11-24T21:10:54.787Z,98752.00
2022-11-24T21:13:22.353Z,98753.91
2022-11-24T21:15:49.405Z,98750.38
2022-11-24T21:18:16.306Z,98747.09
2022-11-24T21:20:45.104Z,98754.59
2022-11-24T21:23:13.066Z,98753.75
2022-11-24T21:25:39.969Z,98755.06
2022-11-24T21:28:08.172Z,98755.06
2022-11-24T21:30:35.178Z,98757.75
2022-11-24T21:33:02.103Z,98763.63
2022-11-24T21:35:28.959Z,98764.44
2022-11-24T21:37:57.139Z,98767.59
2022-11-24T21:40:23.870Z,98764.09
2022-11-24T21:42:50.638Z,98770.53
2022-11-24T21:45:17.431Z,98764.53
2022-11-24T21:47:46.458Z,98764.75
2022-11-24T21:50:13.490Z,98763.34
2022-11-24T21:52:40.286Z,98770.63
2022-11-24T21:55:08.871Z,98764.66
2022-11-24T21:57:35.647Z,98761.97
2022-11-24T22:00:02.535Z,98768.63
2022-11-24T22:02:33.343Z,98767.56
2022-11-24T22:05:00.158Z,98769.44
2022-11-24T22:07:31.114Z,98767.81
2022-11-24T22:09:57.924Z,98764.53
2022-11-24T22:12:26.078Z,98766.63
2022-11-24T22:14:52.847Z,98763.16
2022-11-24T22:17:19.624Z,98766.88
2022-11-24T22:19:46.383Z,98767.09
2022-11-24T22:22:13.145Z,98762.78
2022-11-24T22:24:40.199Z,98758.09
2022-11-24T22:27:07.158Z,98757.50
2022-11-24T22:29:35.269Z,98760.19
2022-11-24T22:32:02.183Z,98748.84
2022-11-24T22:34:29.234Z,98745.56
2022-11-24T22:36:56.001Z,98747.44
2022-11-24T22:39:22.805Z,98745.00
2022-11-24T22:41:49.565Z,98750.38
2022-11-24T22:44:16.364Z,98744.63
2022-11-24T22:46:44.472Z,98748.38
2022-11-24T22:49:11.413Z,98745.91
2022-11-24T22:51:39.108Z,98746.97
2022-11-24T22:54:06.475Z,98743.44
2022-11-24T22:56:33.667Z,98732.91
2022-11-24T22:59:01.542Z,98733.38
2022-11-24T23:01:30.026Z,98738.78
2022-11-24T23:03:58.340Z,98730.69
2022-11-24T23:06:26.896Z,98732.78
2022-11-24T23:08:54.846Z,98734.69
2022-11-24T23:11:29.136Z,98733.84
2022-11-24T23:14:02.247Z,98744.63
2022-11-24T23:16:29.744Z,98744.28
2022-11-24T23:18:58.183Z,98737.22
2022-11-24T23:21:27.188Z,98742.84
2022-11-24T23:23:54.550Z,98748.22
2022-11-24T23:26:23.702Z,98740.16
2022-11-24T23:28:51.135Z,98745.78
2022-11-24T23:31:20.294Z,98748.72
2022-11-24T23:33:47.489Z,98751.41
2022-11-24T23:36:20.360Z,98750.81
2022-11-24T23:38:47.937Z,98752.44
2022-11-24T23:41:17.284Z,98754.34
2022-11-24T23:43:44.482Z,98752.69
2022-11-24T23:46:13.688Z,98757.25
2022-11-24T23:48:41.209Z,98752.94
2022-11-24T23:51:12.234Z,98759.34
2022-11-24T23:53:41.219Z,98752.09
2022-11-24T23:56:11.439Z,98759.34
2022-11-24T23:58:38.271Z,98750.47
